Terminal Aerodrome Forecast
Issued by NWS

Home | Current Version | Previous Version | Text Only | Print | Product List | Glossary Off
Versions: 1 2 3 4 5 6 7 8 9 10 11 12 13 14 15 16 17 18 19 20 21 22

000
FTUS41 KCLE 261741
TAFFDY
TAF
KFDY 261741Z 2618/2718 17010KT 6SM -SHRA BR BKN028 OVC060
      TEMPO 2618/2622 3SM RA OVC015
     FM262200 21010KT 6SM -SHRA VCTS BKN025CB OVC035
      TEMPO 2700/2702 3SM -TSRA OVC015CB
     FM270500 20004KT 6SM BR BKN012
     FM270900 23006KT 3SM BR OVC008
     FM271500 24008KT P6SM BKN015=

USA.gov is the U.S. government's official web portal to all federal, state and local government web resources and services.